sensor_id;sensor_type;location;lat;lon;timestamp;pressure;altitude;pressure_sealevel;temperature;humidity
49759;BME280;35654;46.080;11.118;2022-12-07T00:01:24;99377.31;;;1.42;100.00
49759;BME280;35654;46.080;11.118;2022-12-07T00:03:52;99378.34;;;1.41;100.00
49759;BME280;35654;46.080;11.118;2022-12-07T00:06:18;99384.78;;;1.40;100.00
49759;BME280;35654;46.080;11.118;2022-12-07T00:08:44;99381.28;;;1.40;99.89
49759;BME280;35654;46.080;11.118;2022-12-07T00:11:14;99384.78;;;1.40;99.81
49759;BME280;35654;46.080;11.118;2022-12-07T00:13:39;99386.66;;;1.40;99.66
49759;BME280;35654;46.080;11.118;2022-12-07T00:16:10;99381.88;;;1.42;100.00
49759;BME280;35654;46.080;11.118;2022-12-07T00:18:37;99378.00;;;1.38;99.83
49759;BME280;35654;46.080;11.118;2022-12-07T00:21:22;99375.09;;;1.39;100.00
49759;BME280;35654;46.080;11.118;2022-12-07T00:23:49;99369.78;;;1.33;99.38
49759;BME280;35654;46.080;11.118;2022-12-07T00:26:16;99368.59;;;1.29;99.79
49759;BME280;35654;46.080;11.118;2022-12-07T00:28:45;99368.50;;;1.24;100.00
49759;BME280;35654;46.080;11.118;2022-12-07T00:31:12;99372.03;;;1.24;100.00
49759;BME280;35654;46.080;11.118;2022-12-07T00:33:38;99370.97;;;1.25;100.00
49759;BME280;35654;46.080;11.118;2022-12-07T00:36:06;99372.59;;;1.26;100.00
49759;BME280;35654;46.080;11.118;2022-12-07T00:38:33;99372.84;;;1.25;99.66
49759;BME280;35654;46.080;11.118;2022-12-07T00:41:02;99367.81;;;1.28;100.00
49759;BME280;35654;46.080;11.118;2022-12-07T00:43:27;99365.69;;;1.30;99.83
49759;BME280;35654;46.080;11.118;2022-12-07T00:45:54;99364.88;;;1.30;100.00
49759;BME280;35654;46.080;11.118;2022-12-07T00:48:20;99371.09;;;1.30;99.53
49759;BME280;35654;46.080;11.118;2022-12-07T00:50:46;99363.72;;;1.26;99.42
49759;BME280;35654;46.080;11.118;2022-12-07T00:53:11;99363.94;;;1.24;99.11
49759;BME280;35654;46.080;11.118;2022-12-07T00:55:37;99362.53;;;1.22;99.02
49759;BME280;35654;46.080;11.118;2022-12-07T00:58:04;99361.94;;;1.20;99.35
49759;BME280;35654;46.080;11.118;2022-12-07T01:00:31;99365.69;;;1.18;99.50
49759;BME280;35654;46.080;11.118;2022-12-07T01:02:59;99369.91;;;1.14;99.20
49759;BME280;35654;46.080;11.118;2022-12-07T01:05:25;99373.56;;;1.08;99.46
49759;BME280;35654;46.080;11.118;2022-12-07T01:07:52;99371.06;;;1.07;99.59
49759;BME280;35654;46.080;11.118;2022-12-07T01:10:19;99367.56;;;1.06;99.93
49759;BME280;35654;46.080;11.118;2022-12-07T01:12:45;99372.94;;;1.06;100.00
49759;BME280;35654;46.080;11.118;2022-12-07T01:15:12;99372.63;;;1.03;99.89
49759;BME280;35654;46.080;11.118;2022-12-07T01:17:39;99370.84;;;0.97;99.81
49759;BME280;35654;46.080;11.118;2022-12-07T01:20:06;99370.00;;;0.96;100.00
49759;BME280;35654;46.080;11.118;2022-12-07T01:22:38;99370.59;;;0.98;100.00
49759;BME280;35654;46.080;11.118;2022-12-07T01:25:06;99369.56;;;0.99;100.00
49759;BME280;35654;46.080;11.118;2022-12-07T01:27:34;99363.91;;;1.01;100.00
49759;BME280;35654;46.080;11.118;2022-12-07T01:30:02;99370.72;;;1.03;100.00
49759;BME280;35654;46.080;11.118;2022-12-07T01:32:29;99352.34;;;1.00;100.00
49759;BME280;35654;46.080;11.118;2022-12-07T01:34:55;99361.22;;;1.01;100.00
49759;BME280;35654;46.080;11.118;2022-12-07T01:37:22;99361.22;;;1.01;100.00
49759;BME280;35654;46.080;11.118;2022-12-07T01:39:49;99359.59;;;1.00;100.00
49759;BME280;35654;46.080;11.118;2022-12-07T01:42:17;99363.44;;;0.92;100.00
49759;BME280;35654;46.080;11.118;2022-12-07T01:47:52;99350.19;;;0.91;100.00
49759;BME280;35654;46.080;11.118;2022-12-07T01:50:21;99354.31;;;0.93;100.00
49759;BME280;35654;46.080;11.118;2022-12-07T01:52:51;99342.69;;;0.93;100.00
49759;BME280;35654;46.080;11.118;2022-12-07T01:55:19;99341.06;;;0.92;100.00
49759;BME280;35654;46.080;11.118;2022-12-07T01:57:49;99342.94;;;0.91;100.00
49759;BME280;35654;46.080;11.118;2022-12-07T02:00:16;99338.59;;;0.90;100.00
49759;BME280;35654;46.080;11.118;2022-12-07T02:02:54;99335.91;;;0.90;100.00
49759;BME280;35654;46.080;11.118;2022-12-07T02:05:24;99333.66;;;0.87;100.00
49759;BME280;35654;46.080;11.118;2022-12-07T02:07:53;99335.19;;;0.83;100.00
49759;BME280;35654;46.080;11.118;2022-12-07T02:10:28;99330.84;;;0.82;100.00
49759;BME280;35654;46.080;11.118;2022-12-07T02:12:59;99341.88;;;0.81;100.00
49759;BME280;35654;46.080;11.118;2022-12-07T02:23:41;99339.28;;;0.74;100.00
49759;BME280;35654;46.080;11.118;2022-12-07T02:31:33;99327.66;;;0.62;100.00
49759;BME280;35654;46.080;11.118;2022-12-07T02:34:08;99326.25;;;0.59;100.00
49759;BME280;35654;46.080;11.118;2022-12-07T02:36:40;99327.44;;;0.64;100.00
49759;BME280;35654;46.080;11.118;2022-12-07T02:39:37;99325.31;;;0.66;100.00
49759;BME280;35654;46.080;11.118;2022-12-07T02:42:03;99328.03;;;0.66;100.00
49759;BME280;35654;46.080;11.118;2022-12-07T02:44:33;99326.16;;;0.66;100.00
49759;BME280;35654;46.080;11.118;2022-12-07T02:47:05;99327.19;;;0.65;100.00
49759;BME280;35654;46.080;11.118;2022-12-07T02:49:33;99322.06;;;0.64;100.00
49759;BME280;35654;46.080;11.118;2022-12-07T02:51:58;99322.63;;;0.66;100.00
49759;BME280;35654;46.080;11.118;2022-12-07T02:54:24;99315.84;;;0.63;100.00
49759;BME280;35654;46.080;11.118;2022-12-07T02:56:57;99317.50;;;0.64;100.00
49759;BME280;35654;46.080;11.118;2022-12-07T03:00:00;99316.28;;;0.60;100.00
49759;BME280;35654;46.080;11.118;2022-12-07T03:05:25;99315.34;;;0.54;100.00
49759;BME280;35654;46.080;11.118;2022-12-07T03:08:07;99316.72;;;0.45;100.00
49759;BME280;35654;46.080;11.118;2022-12-07T03:13:45;99311.00;;;0.53;100.00
49759;BME280;35654;46.080;11.118;2022-12-07T03:16:27;99316.19;;;0.55;100.00
49759;BME280;35654;46.080;11.118;2022-12-07T03:18:58;99312.41;;;0.56;100.00
49759;BME280;35654;46.080;11.118;2022-12-07T03:21:26;99315.09;;;0.56;100.00
49759;BME280;35654;46.080;11.118;2022-12-07T03:23:57;99315.34;;;0.54;100.00
49759;BME280;35654;46.080;11.118;2022-12-07T03:26:30;99316.38;;;0.53;100.00
49759;BME280;35654;46.080;11.118;2022-12-07T03:28:59;99314.78;;;0.52;100.00
49759;BME280;35654;46.080;11.118;2022-12-07T03:31:33;99309.13;;;0.54;100.00
49759;BME280;35654;46.080;11.118;2022-12-07T03:34:10;99306.31;;;0.49;100.00
49759;BME280;35654;46.080;11.118;2022-12-07T03:37:01;99307.25;;;0.43;100.00
49759;BME280;35654;46.080;11.118;2022-12-07T03:40:11;99301.50;;;0.28;100.00
49759;BME280;35654;46.080;11.118;2022-12-07T03:42:17;99306.03;;;0.27;100.00
49759;BME280;35654;46.080;11.118;2022-12-07T03:44:43;99299.13;;;0.31;100.00
49759;BME280;35654;46.080;11.118;2022-12-07T03:47:16;99304.88;;;0.35;100.00
49759;BME280;35654;46.080;11.118;2022-12-07T03:49:48;99298.00;;;0.39;100.00
49759;BME280;35654;46.080;11.118;2022-12-07T03:52:26;99302.69;;;0.43;100.00
49759;BME280;35654;46.080;11.118;2022-12-07T03:55:12;99304.34;;;0.44;100.00
49759;BME280;35654;46.080;11.118;2022-12-07T03:57:41;99289.78;;;0.45;100.00
49759;BME280;35654;46.080;11.118;2022-12-07T04:00:09;99294.13;;;0.46;100.00
49759;BME280;35654;46.080;11.118;2022-12-07T04:02:35;99287.94;;;0.46;100.00
49759;BME280;35654;46.080;11.118;2022-12-07T04:05:01;99293.31;;;0.46;100.00
49759;BME280;35654;46.080;11.118;2022-12-07T04:07:26;99287.09;;;0.45;100.00
49759;BME280;35654;46.080;11.118;2022-12-07T04:09:52;99284.88;;;0.42;100.00
49759;BME280;35654;46.080;11.118;2022-12-07T04:12:20;99284.28;;;0.40;100.00
49759;BME280;35654;46.080;11.118;2022-12-07T04:14:46;99280.75;;;0.40;100.00
49759;BME280;35654;46.080;11.118;2022-12-07T04:17:12;99283.72;;;0.38;100.00
49759;BME280;35654;46.080;11.118;2022-12-07T04:19:37;99292.81;;;0.37;100.00
49759;BME280;35654;46.080;11.118;2022-12-07T04:22:04;99288.72;;;0.35;100.00
49759;BME280;35654;46.080;11.118;2022-12-07T04:24:30;99286.03;;;0.35;100.00
49759;BME280;35654;46.080;11.118;2022-12-07T04:26:55;99284.16;;;0.35;100.00
49759;BME280;35654;46.080;11.118;2022-12-07T04:29:21;99286.03;;;0.35;100.00
49759;BME280;35654;46.080;11.118;2022-12-07T04:31:48;99281.09;;;0.32;100.00
49759;BME280;35654;46.080;11.118;2022-12-07T04:34:14;99282.16;;;0.31;100.00
49759;BME280;35654;46.080;11.118;2022-12-07T04:36:41;99281.56;;;0.29;100.00
49759;BME280;35654;46.080;11.118;2022-12-07T04:39:07;99278.28;;;0.27;100.00
49759;BME280;35654;46.080;11.118;2022-12-07T04:41:33;99274.56;;;0.28;100.00
49759;BME280;35654;46.080;11.118;2022-12-07T04:44:02;99288.69;;;0.23;100.00
49759;BME280;35654;46.080;11.118;2022-12-07T04:46:30;99272.31;;;0.25;100.00
49759;BME280;35654;46.080;11.118;2022-12-07T04:48:56;99268.34;;;0.27;100.00
49759;BME280;35654;46.080;11.118;2022-12-07T04:51:24;99278.28;;;0.27;100.00
49759;BME280;35654;46.080;11.118;2022-12-07T04:53:50;99279.94;;;0.28;100.00
49759;BME280;35654;46.080;11.118;2022-12-07T04:56:16;99277.25;;;0.28;100.00
49759;BME280;35654;46.080;11.118;2022-12-07T04:58:43;99275.13;;;0.30;100.00
49759;BME280;35654;46.080;11.118;2022-12-07T05:01:09;99272.91;;;0.27;100.00
49759;BME280;35654;46.080;11.118;2022-12-07T05:03:36;99277.25;;;0.28;100.00
49759;BME280;35654;46.080;11.118;2022-12-07T05:06:01;99271.88;;;0.28;100.00
49759;BME280;35654;46.080;11.118;2022-12-07T05:08:27;99273.72;;;0.27;100.00
49759;BME280;35654;46.080;11.118;2022-12-07T05:10:52;99272.06;;;0.26;100.00
49759;BME280;35654;46.080;11.118;2022-12-07T05:13:18;99275.34;;;0.28;100.00
49759;BME280;35654;46.080;11.118;2022-12-07T05:15:43;99276.19;;;0.29;100.00
49759;BME280;35654;46.080;11.118;2022-12-07T05:18:10;99274.31;;;0.29;100.00
49759;BME280;35654;46.080;11.118;2022-12-07T05:20:38;99277.59;;;0.31;100.00
49759;BME280;35654;46.080;11.118;2022-12-07T05:23:03;99273.84;;;0.32;100.00
49759;BME280;35654;46.080;11.118;2022-12-07T05:25:29;99269.28;;;0.33;100.00
49759;BME280;35654;46.080;11.118;2022-12-07T05:27:55;99271.97;;;0.33;100.00
49759;BME280;35654;46.080;11.118;2022-12-07T05:30:22;99266.59;;;0.33;100.00
49759;BME280;35654;46.080;11.118;2022-12-07T05:32:47;99264.72;;;0.33;100.00
49759;BME280;35654;46.080;11.118;2022-12-07T05:35:13;99266.59;;;0.33;100.00
49759;BME280;35654;46.080;11.118;2022-12-07T05:37:38;99268.22;;;0.34;100.00
49759;BME280;35654;46.080;11.118;2022-12-07T05:40:05;99265.53;;;0.34;100.00
49759;BME280;35654;46.080;11.118;2022-12-07T05:42:30;99262.03;;;0.33;100.00
49759;BME280;35654;46.080;11.118;2022-12-07T05:44:56;99270.91;;;0.34;100.00
49759;BME280;35654;46.080;11.118;2022-12-07T05:47:21;99267.44;;;0.33;100.00
49759;BME280;35654;46.080;11.118;2022-12-07T05:49:47;99267.44;;;0.33;100.00
49759;BME280;35654;46.080;11.118;2022-12-07T05:52:12;99272.81;;;0.33;100.00
49759;BME280;35654;46.080;11.118;2022-12-07T05:54:38;99267.44;;;0.33;100.00
49759;BME280;35654;46.080;11.118;2022-12-07T05:57:03;99271.16;;;0.32;100.00
49759;BME280;35654;46.080;11.118;2022-12-07T05:59:28;99267.88;;;0.30;100.00
49759;BME280;35654;46.080;11.118;2022-12-07T06:02:03;99277.38;;;0.33;100.00
49759;BME280;35654;46.080;11.118;2022-12-07T06:04:31;99271.16;;;0.32;100.00
49759;BME280;35654;46.080;11.118;2022-12-07T06:06:57;99276.09;;;0.35;100.00
49759;BME280;35654;46.080;11.118;2022-12-07T06:09:24;99275.63;;;0.38;100.00
49759;BME280;35654;46.080;11.118;2022-12-07T06:11:50;99282.88;;;0.38;100.00
49759;BME280;35654;46.080;11.118;2022-12-07T06:14:34;99286.97;;;0.40;100.00
49759;BME280;35654;46.080;11.118;2022-12-07T06:16:59;99282.53;;;0.46;100.00
49759;BME280;35654;46.080;11.118;2022-12-07T06:19:25;99290.63;;;0.46;100.00
49759;BME280;35654;46.080;11.118;2022-12-07T06:21:51;99293.19;;;0.41;100.00
49759;BME280;35654;46.080;11.118;2022-12-07T06:24:17;99285.59;;;0.49;100.00
49759;BME280;35654;46.080;11.118;2022-12-07T06:26:43;99290.91;;;0.91;100.00
49759;BME280;35654;46.080;11.118;2022-12-07T06:29:09;99282.69;;;0.97;100.00
49759;BME280;35654;46.080;11.118;2022-12-07T06:31:36;99279.16;;;1.20;100.00
49759;BME280;35654;46.080;11.118;2022-12-07T06:34:04;99284.31;;;1.33;100.00
49759;BME280;35654;46.080;11.118;2022-12-07T06:36:30;99288.31;;;1.19;100.00
49759;BME280;35654;46.080;11.118;2022-12-07T06:38:56;99282.66;;;1.09;100.00
49759;BME280;35654;46.080;11.118;2022-12-07T06:41:22;99287.00;;;1.33;99.66
49759;BME280;35654;46.080;11.118;2022-12-07T06:43:48;99290.28;;;1.12;98.24
49759;BME280;35654;46.080;11.118;2022-12-07T06:46:14;99294.41;;;0.91;97.74
49759;BME280;35654;46.080;11.118;2022-12-07T06:48:40;99290.06;;;0.79;98.54
49759;BME280;35654;46.080;11.118;2022-12-07T06:51:06;99294.97;;;0.70;99.25
49759;BME280;35654;46.080;11.118;2022-12-07T06:53:31;99288.44;;;0.66;99.74
49759;BME280;35654;46.080;11.118;2022-12-07T06:55:57;99290.53;;;0.64;99.95
49759;BME280;35654;46.080;11.118;2022-12-07T06:58:22;99295.81;;;0.71;100.00
49759;BME280;35654;46.080;11.118;2022-12-07T07:00:48;99294.03;;;0.65;99.53
49759;BME280;35654;46.080;11.118;2022-12-07T07:03:14;99293.91;;;0.59;99.00
49759;BME280;35654;46.080;11.118;2022-12-07T07:05:40;99298.75;;;0.69;100.00
49759;BME280;35654;46.080;11.118;2022-12-07T07:08:07;99299.78;;;0.68;99.87
49759;BME280;35654;46.080;11.118;2022-12-07T07:10:32;99310.22;;;0.76;100.00
49759;BME280;35654;46.080;11.118;2022-12-07T07:12:58;99305.66;;;0.77;99.54
49759;BME280;35654;46.080;11.118;2022-12-07T07:15:23;99299.22;;;0.78;99.08
49759;BME280;35654;46.080;11.118;2022-12-07T07:17:49;99309.28;;;0.82;99.39
49759;BME280;35654;46.080;11.118;2022-12-07T07:20:14;99304.38;;;0.79;98.51
49759;BME280;35654;46.080;11.118;2022-12-07T07:22:40;99308.81;;;0.85;99.50
49759;BME280;35654;46.080;11.118;2022-12-07T07:25:06;99315.41;;;0.89;99.09
49759;BME280;35654;46.080;11.118;2022-12-07T07:27:32;99308.59;;;0.98;99.02
49759;BME280;35654;46.080;11.118;2022-12-07T07:29:57;99301.44;;;1.04;98.24
49759;BME280;35654;46.080;11.118;2022-12-07T07:32:22;99310.25;;;1.11;97.84
49759;BME280;35654;46.080;11.118;2022-12-07T07:34:48;99300.59;;;1.15;98.03
49759;BME280;35654;46.080;11.118;2022-12-07T07:37:13;99303.78;;;1.24;97.52
49759;BME280;35654;46.080;11.118;2022-12-07T07:39:39;99309.88;;;1.31;97.13
49759;BME280;35654;46.080;11.118;2022-12-07T07:42:05;99305.41;;;1.36;96.32
49759;BME280;35654;46.080;11.118;2022-12-07T07:44:31;99307.75;;;1.33;95.72
49759;BME280;35654;46.080;11.118;2022-12-07T07:46:56;99311.13;;;1.40;96.37
49759;BME280;35654;46.080;11.118;2022-12-07T07:49:21;99313.97;;;1.45;95.22
49759;BME280;35654;46.080;11.118;2022-12-07T07:51:47;99314.56;;;1.35;94.68
49759;BME280;35654;46.080;11.118;2022-12-07T07:54:12;99313.50;;;1.36;94.25
49759;BME280;35654;46.080;11.118;2022-12-07T07:56:38;99312.31;;;1.32;94.36
49759;BME280;35654;46.080;11.118;2022-12-07T07:59:03;99313.97;;;1.33;94.67
49759;BME280;35654;46.080;11.118;2022-12-07T08:01:28;99322.66;;;1.35;94.14
49759;BME280;35654;46.080;11.118;2022-12-07T08:03:54;99325.69;;;1.39;94.34
49759;BME280;35654;46.080;11.118;2022-12-07T08:06:19;99319.72;;;1.37;94.64
49759;BME280;35654;46.080;11.118;2022-12-07T08:08:45;99315.47;;;1.41;94.57
49759;BME280;35654;46.080;11.118;2022-12-07T08:11:10;99320.19;;;1.34;94.52
49759;BME280;35654;46.080;11.118;2022-12-07T08:13:37;99318.19;;;1.41;94.85
49759;BME280;35654;46.080;11.118;2022-12-07T08:16:04;99324.28;;;1.48;94.64
49759;BME280;35654;46.080;11.118;2022-12-07T08:18:30;99322.63;;;1.58;94.25
49759;BME280;35654;46.080;11.118;2022-12-07T08:20:59;99327.72;;;1.71;94.22
49759;BME280;35654;46.080;11.118;2022-12-07T08:23:26;99323.34;;;1.82;93.57
49759;BME280;35654;46.080;11.118;2022-12-07T08:25:51;99318.50;;;1.96;93.48
49759;BME280;35654;46.080;11.118;2022-12-07T08:28:17;99326.34;;;2.09;93.04
49759;BME280;35654;46.080;11.118;2022-12-07T08:30:42;99317.09;;;2.21;91.75
49759;BME280;35654;46.080;11.118;2022-12-07T08:33:09;99318.34;;;2.30;89.70
49759;BME280;35654;46.080;11.118;2022-12-07T08:35:35;99320.75;;;2.44;88.90
49759;BME280;35654;46.080;11.118;2022-12-07T08:38:01;99313.41;;;2.56;88.12
49759;BME280;35654;46.080;11.118;2022-12-07T08:40:27;99316.88;;;2.68;87.57
49759;BME280;35654;46.080;11.118;2022-12-07T08:42:53;99315.97;;;2.79;86.70
49759;BME280;35654;46.080;11.118;2022-12-07T08:45:19;99313.66;;;2.87;85.82
49759;BME280;35654;46.080;11.118;2022-12-07T08:47:54;99318.91;;;2.94;84.92
49759;BME280;35654;46.080;11.118;2022-12-07T08:50:22;99321.84;;;3.09;84.65
49759;BME280;35654;46.080;11.118;2022-12-07T08:52:51;99327.06;;;3.16;84.29
49759;BME280;35654;46.080;11.118;2022-12-07T08:55:19;99326.47;;;3.30;84.17
49759;BME280;35654;46.080;11.118;2022-12-07T08:57:46;99321.41;;;3.34;82.75
49759;BME280;35654;46.080;11.118;2022-12-07T09:00:13;99326.13;;;3.43;83.06
49759;BME280;35654;46.080;11.118;2022-12-07T09:02:39;99320.91;;;3.59;82.02
49759;BME280;35654;46.080;11.118;2022-12-07T09:05:05;99334.28;;;3.65;80.77
49759;BME280;35654;46.080;11.118;2022-12-07T09:07:32;99329.47;;;3.72;81.01
49759;BME280;35654;46.080;11.118;2022-12-07T09:09:58;99329.88;;;3.81;80.15
49759;BME280;35654;46.080;11.118;2022-12-07T09:12:24;99328.53;;;3.83;79.58
49759;BME280;35654;46.080;11.118;2022-12-07T09:14:49;99324.50;;;3.86;79.84
49759;BME280;35654;46.080;11.118;2022-12-07T09:17:15;99329.69;;;3.87;79.77
49759;BME280;35654;46.080;11.118;2022-12-07T09:19:40;99322.63;;;3.86;79.83
49759;BME280;35654;46.080;11.118;2022-12-07T09:22:07;99313.59;;;4.02;79.80
49759;BME280;35654;46.080;11.118;2022-12-07T09:24:33;99313.50;;;4.19;79.31
49759;BME280;35654;46.080;11.118;2022-12-07T09:26:58;99313.38;;;4.31;79.20
49759;BME280;35654;46.080;11.118;2022-12-07T09:29:24;99318.31;;;4.39;78.17
49759;BME280;35654;46.080;11.118;2022-12-07T09:31:50;99314.28;;;4.41;75.79
49759;BME280;35654;46.080;11.118;2022-12-07T09:34:19;99304.31;;;4.47;77.28
49759;BME280;35654;46.080;11.118;2022-12-07T09:36:45;99302.06;;;4.65;75.62
49759;BME280;35654;46.080;11.118;2022-12-07T09:39:11;99300.16;;;4.66;75.29
49759;BME280;35654;46.080;11.118;2022-12-07T09:41:41;99298.50;;;4.65;75.57
49759;BME280;35654;46.080;11.118;2022-12-07T09:44:28;99297.00;;;4.79;73.82
49759;BME280;35654;46.080;11.118;2022-12-07T09:46:54;99289.47;;;4.86;73.99
49759;BME280;35654;46.080;11.118;2022-12-07T09:49:23;99293.69;;;5.09;73.24
49759;BME280;35654;46.080;11.118;2022-12-07T09:52:03;99287.34;;;5.30;72.69
49759;BME280;35654;46.080;11.118;2022-12-07T09:54:43;99286.75;;;5.75;70.10
49759;BME280;35654;46.080;11.118;2022-12-07T09:57:11;99280.91;;;8.57;61.30
49759;BME280;35654;46.080;11.118;2022-12-07T09:59:38;99267.56;;;12.65;46.64
49759;BME280;35654;46.080;11.118;2022-12-07T10:02:38;99269.78;;;15.71;38.02
49759;BME280;35654;46.080;11.118;2022-12-07T10:05:07;99259.09;;;16.90;35.78
49759;BME280;35654;46.080;11.118;2022-12-07T10:07:35;99264.66;;;16.69;33.64
49759;BME280;35654;46.080;11.118;2022-12-07T10:10:03;99261.84;;;15.61;35.51
49759;BME280;35654;46.080;11.118;2022-12-07T10:12:29;99249.84;;;16.24;34.47
49759;BME280;35654;46.080;11.118;2022-12-07T10:15:03;99247.72;;;17.69;32.31
49759;BME280;35654;46.080;11.118;2022-12-07T10:17:35;99236.41;;;18.11;30.67
49759;BME280;35654;46.080;11.118;2022-12-07T10:22:54;99236.03;;;19.32;29.33
49759;BME280;35654;46.080;11.118;2022-12-07T10:25:22;99231.72;;;19.62;28.71
49759;BME280;35654;46.080;11.118;2022-12-07T10:28:17;99230.50;;;18.24;29.01
49759;BME280;35654;46.080;11.118;2022-12-07T10:30:54;99232.97;;;18.93;28.26
49759;BME280;35654;46.080;11.118;2022-12-07T10:33:36;99221.28;;;19.00;28.15
49759;BME280;35654;46.080;11.118;2022-12-07T10:36:24;99223.03;;;19.79;26.79
49759;BME280;35654;46.080;11.118;2022-12-07T10:39:00;99217.75;;;18.87;28.07
49759;BME280;35654;46.080;11.118;2022-12-07T10:41:26;99207.63;;;19.23;27.54
49759;BME280;35654;46.080;11.118;2022-12-07T10:43:54;99202.38;;;19.80;26.72
49759;BME280;35654;46.080;11.118;2022-12-07T10:46:44;99197.53;;;18.47;28.70
49759;BME280;35654;46.080;11.118;2022-12-07T10:51:51;99198.31;;;17.95;29.33
49759;BME280;35654;46.080;11.118;2022-12-07T10:55:01;99195.84;;;19.41;27.33
49759;BME280;35654;46.080;11.118;2022-12-07T11:00:31;99179.47;;;19.67;26.90
49759;BME280;35654;46.080;11.118;2022-12-07T11:17:42;99134.78;;;21.48;24.68
49759;BME280;35654;46.080;11.118;2022-12-07T11:32:10;99113.69;;;21.96;24.01
49759;BME280;35654;46.080;11.118;2022-12-07T11:34:51;99105.19;;;22.49;23.21
49759;BME280;35654;46.080;11.118;2022-12-07T11:37:31;99105.06;;;22.38;23.08
49759;BME280;35654;46.080;11.118;2022-12-07T11:40:28;99098.88;;;19.83;25.94
49759;BME280;35654;46.080;11.118;2022-12-07T11:42:57;99102.81;;;19.82;25.91
49759;BME280;35654;46.080;11.118;2022-12-07T11:45:27;99100.53;;;20.22;26.16
49759;BME280;35654;46.080;11.118;2022-12-07T11:48:41;99095.31;;;21.43;24.19
49759;BME280;35654;46.080;11.118;2022-12-07T11:50:57;99087.72;;;21.66;24.16
49759;BME280;35654;46.080;11.118;2022-12-07T11:53:37;99090.75;;;21.84;23.71
49759;BME280;35654;46.080;11.118;2022-12-07T11:56:17;99078.31;;;21.78;23.75
49759;BME280;35654;46.080;11.118;2022-12-07T12:06:43;99070.97;;;19.29;26.52
49759;BME280;35654;46.080;11.118;2022-12-07T12:14:50;99054.75;;;21.98;24.19
49759;BME280;35654;46.080;11.118;2022-12-07T12:20:54;99049.78;;;20.25;25.93
49759;BME280;35654;46.080;11.118;2022-12-07T12:23:22;99047.41;;;20.66;25.43
49759;BME280;35654;46.080;11.118;2022-12-07T12:25:54;99046.34;;;21.68;24.20
49759;BME280;35654;46.080;11.118;2022-12-07T12:33:45;99040.03;;;22.01;23.40
49759;BME280;35654;46.080;11.118;2022-12-07T12:54:37;99019.91;;;20.22;25.57
49759;BME280;35654;46.080;11.118;2022-12-07T12:59:36;99010.28;;;21.04;24.18
49759;BME280;35654;46.080;11.118;2022-12-07T13:10:37;98995.38;;;21.41;23.61
49759;BME280;35654;46.080;11.118;2022-12-07T13:26:19;98988.38;;;16.52;30.56
49759;BME280;35654;46.080;11.118;2022-12-07T13:28:48;99003.59;;;13.49;36.08
49759;BME280;35654;46.080;11.118;2022-12-07T13:33:58;99001.28;;;10.77;41.89
49759;BME280;35654;46.080;11.118;2022-12-07T13:36:29;99004.84;;;9.86;44.74
49759;BME280;35654;46.080;11.118;2022-12-07T13:39:20;99004.97;;;9.25;47.02
49759;BME280;35654;46.080;11.118;2022-12-07T13:41:55;99005.28;;;8.81;48.98
49759;BME280;35654;46.080;11.118;2022-12-07T13:44:23;99000.31;;;8.64;49.78
49759;BME280;35654;46.080;11.118;2022-12-07T13:49:22;98999.69;;;7.91;53.11
49759;BME280;35654;46.080;11.118;2022-12-07T13:51:48;99001.31;;;7.92;53.71
49759;BME280;35654;46.080;11.118;2022-12-07T13:54:14;98998.91;;;8.14;52.52
49759;BME280;35654;46.080;11.118;2022-12-07T13:56:40;98990.44;;;8.16;53.84
49759;BME280;35654;46.080;11.118;2022-12-07T13:59:25;98991.03;;;7.84;55.82
49759;BME280;35654;46.080;11.118;2022-12-07T14:01:52;98991.50;;;7.57;56.44
49759;BME280;35654;46.080;11.118;2022-12-07T14:04:19;98992.97;;;7.45;57.10
49759;BME280;35654;46.080;11.118;2022-12-07T14:06:52;98996.31;;;7.32;58.13
49759;BME280;35654;46.080;11.118;2022-12-07T14:09:23;98993.75;;;7.12;59.84
49759;BME280;35654;46.080;11.118;2022-12-07T14:11:52;98986.75;;;7.00;59.38
49759;BME280;35654;46.080;11.118;2022-12-07T14:14:21;98989.13;;;7.07;59.97
49759;BME280;35654;46.080;11.118;2022-12-07T14:17:09;98986.41;;;7.07;60.87
49759;BME280;35654;46.080;11.118;2022-12-07T14:19:59;98995.47;;;6.92;61.13
49759;BME280;35654;46.080;11.118;2022-12-07T14:24:57;98988.53;;;6.66;61.94
49759;BME280;35654;46.080;11.118;2022-12-07T14:27:23;98989.94;;;6.59;62.04
49759;BME280;35654;46.080;11.118;2022-12-07T14:29:55;98990.47;;;6.51;63.52
49759;BME280;35654;46.080;11.118;2022-12-07T14:32:27;98997.06;;;6.44;64.20
49759;BME280;35654;46.080;11.118;2022-12-07T14:35:07;98986.19;;;6.44;64.56
49759;BME280;35654;46.080;11.118;2022-12-07T14:37:35;99000.84;;;6.43;65.28
49759;BME280;35654;46.080;11.118;2022-12-07T14:40:03;98995.69;;;6.37;65.63
49759;BME280;35654;46.080;11.118;2022-12-07T14:42:31;99011.50;;;6.30;65.86
49759;BME280;35654;46.080;11.118;2022-12-07T14:44:58;99019.69;;;6.25;66.56
49759;BME280;35654;46.080;11.118;2022-12-07T14:47:25;99008.53;;;6.16;66.89
49759;BME280;35654;46.080;11.118;2022-12-07T14:49:51;99018.84;;;6.29;67.29
49759;BME280;35654;46.080;11.118;2022-12-07T14:52:28;99015.03;;;6.25;67.44
49759;BME280;35654;46.080;11.118;2022-12-07T14:54:55;99018.31;;;6.17;68.58
49759;BME280;35654;46.080;11.118;2022-12-07T14:57:21;99014.25;;;6.05;69.33
49759;BME280;35654;46.080;11.118;2022-12-07T14:59:46;99027.03;;;6.04;69.69
49759;BME280;35654;46.080;11.118;2022-12-07T15:02:13;99022.16;;;6.11;69.10
49759;BME280;35654;46.080;11.118;2022-12-07T15:04:39;99025.38;;;6.18;69.44
49759;BME280;35654;46.080;11.118;2022-12-07T15:07:08;99021.56;;;6.24;66.16
49759;BME280;35654;46.080;11.118;2022-12-07T15:09:35;99025.09;;;6.20;66.82
49759;BME280;35654;46.080;11.118;2022-12-07T15:12:00;99024.31;;;6.09;67.64
49759;BME280;35654;46.080;11.118;2022-12-07T15:14:25;99030.31;;;5.86;69.54
49759;BME280;35654;46.080;11.118;2022-12-07T15:16:51;99033.28;;;5.74;70.78